createdAt,value
2022-10-20T00:00:26.611Z,10.93
2022-10-20T00:02:56.855Z,10.98
2022-10-20T00:05:26.962Z,11.03
2022-10-20T00:07:57.138Z,11.08
2022-10-20T00:10:27.346Z,11.13
2022-10-20T00:12:57.442Z,11.18
2022-10-20T00:15:27.771Z,11.24
2022-10-20T00:17:57.918Z,11.30
2022-10-20T00:20:28.023Z,11.36
2022-10-20T00:22:58.172Z,11.43
2022-10-20T00:25:28.497Z,11.51
2022-10-20T00:27:58.605Z,11.58
2022-10-20T00:30:28.138Z,11.66
2022-10-20T00:32:58.268Z,11.73
2022-10-20T00:35:28.725Z,11.78
2022-10-20T00:37:59.460Z,11.83
2022-10-20T00:40:29.686Z,11.87
2022-10-20T00:42:59.899Z,11.88
2022-10-20T00:45:30.443Z,11.95
2022-10-20T00:48:08.925Z,11.97
2022-10-20T00:50:45.512Z,12.03
2022-10-20T00:53:15.938Z,12.06
2022-10-20T00:55:49.742Z,12.12
2022-10-20T00:58:21.384Z,12.17
2022-10-20T01:00:59.005Z,12.22
2022-10-20T01:03:59.880Z,12.26
2022-10-20T01:06:30.505Z,12.30
2022-10-20T01:09:01.760Z,12.34
2022-10-20T01:12:07.753Z,12.38
2022-10-20T01:14:52.407Z,12.43
2022-10-20T01:17:37.651Z,12.46
2022-10-20T01:20:26.441Z,12.52
2022-10-20T01:23:11.483Z,12.54
2022-10-20T01:26:07.174Z,12.57
2022-10-20T01:28:48.339Z,12.59
2022-10-20T01:31:51.896Z,12.63
2022-10-20T01:34:40.165Z,12.66
2022-10-20T01:37:49.031Z,12.68
2022-10-20T01:40:23.096Z,12.69
2022-10-20T01:42:57.076Z,12.72
2022-10-20T01:45:32.413Z,12.78
2022-10-20T01:48:07.608Z,12.84
2022-10-20T01:50:40.203Z,12.93
2022-10-20T01:53:10.940Z,13.02
2022-10-20T01:55:42.470Z,13.14
2022-10-20T01:58:58.549Z,13.27
2022-10-20T02:01:50.342Z,13.37
2022-10-20T02:04:46.319Z,13.42
2022-10-20T02:07:26.757Z,13.49
2022-10-20T02:10:07.795Z,13.48
2022-10-20T02:12:43.919Z,13.49
2022-10-20T02:15:21.432Z,13.50
2022-10-20T02:17:57.044Z,13.55
2022-10-20T02:20:27.980Z,13.57
2022-10-20T02:23:00.700Z,13.60
2022-10-20T02:25:32.993Z,13.61
2022-10-20T02:28:06.574Z,13.66
2022-10-20T02:30:39.154Z,13.69
2022-10-20T02:33:10.617Z,13.71
2022-10-20T02:35:44.205Z,13.74
2022-10-20T02:38:14.823Z,13.77
2022-10-20T02:40:45.055Z,13.80
2022-10-20T02:43:15.505Z,13.82
2022-10-20T02:45:46.832Z,13.85
2022-10-20T02:48:17.282Z,13.87
2022-10-20T02:50:47.687Z,13.87
2022-10-20T02:53:17.769Z,13.85
2022-10-20T02:55:47.987Z,13.87
2022-10-20T02:58:18.683Z,13.90
2022-10-20T03:00:50.676Z,13.95
2022-10-20T03:03:21.591Z,14.01
2022-10-20T03:05:52.144Z,14.07
2022-10-20T03:08:23.024Z,14.15
2022-10-20T03:10:53.408Z,14.23
2022-10-20T03:13:23.573Z,14.32
2022-10-20T03:15:53.822Z,14.37
2022-10-20T03:18:24.869Z,14.46
2022-10-20T03:20:56.589Z,14.52
2022-10-20T03:23:26.839Z,14.60
2022-10-20T03:26:02.749Z,14.65
2022-10-20T03:28:33.563Z,14.67
2022-10-20T03:31:04.263Z,14.70
2022-10-20T03:33:34.898Z,14.70
2022-10-20T03:36:05.564Z,14.69
2022-10-20T03:38:36.200Z,14.71
2022-10-20T03:41:06.650Z,14.73
2022-10-20T03:43:36.980Z,14.74
2022-10-20T03:46:10.497Z,14.72
2022-10-20T03:48:41.693Z,14.70
2022-10-20T03:51:15.118Z,14.70
2022-10-20T03:53:46.069Z,14.69
2022-10-20T03:56:20.961Z,14.68
2022-10-20T03:58:51.547Z,14.69
2022-10-20T04:01:26.385Z,14.70
2022-10-20T04:03:56.983Z,14.70
2022-10-20T04:06:27.463Z,14.68
2022-10-20T04:08:57.630Z,14.67
2022-10-20T04:11:28.489Z,14.65
2022-10-20T04:13:59.745Z,14.63
2022-10-20T04:16:30.399Z,14.62
2022-10-20T04:19:00.841Z,14.61
2022-10-20T04:21:31.083Z,14.59
2022-10-20T04:24:01.676Z,14.58
2022-10-20T04:26:31.844Z,14.60
2022-10-20T04:29:01.888Z,14.63
2022-10-20T04:31:32.386Z,14.63
2022-10-20T04:34:02.062Z,14.66
2022-10-20T04:36:32.141Z,14.66
2022-10-20T04:39:02.144Z,14.64
2022-10-20T04:41:32.242Z,14.63
2022-10-20T04:44:02.369Z,14.62
2022-10-20T04:46:32.551Z,14.60
2022-10-20T04:49:02.841Z,14.60
2022-10-20T04:51:33.620Z,14.61
2022-10-20T04:56:39.761Z,14.61
2022-10-20T04:59:12.733Z,14.64
2022-10-20T05:01:44.735Z,14.67
2022-10-20T05:04:15.465Z,14.68
2022-10-20T05:06:46.201Z,14.69
2022-10-20T05:09:17.275Z,14.73
2022-10-20T05:11:48.118Z,14.75
2022-10-20T05:14:19.023Z,14.79
2022-10-20T05:16:49.296Z,14.84
2022-10-20T05:19:20.112Z,14.88
2022-10-20T05:21:50.594Z,14.92
2022-10-20T05:24:22.159Z,14.96
2022-10-20T05:26:56.518Z,15.00
2022-10-20T05:29:27.150Z,14.99
2022-10-20T05:31:56.892Z,15.00
2022-10-20T05:34:27.039Z,14.98
2022-10-20T05:36:57.121Z,14.94
2022-10-20T05:39:27.249Z,14.94
2022-10-20T05:41:57.433Z,14.90
2022-10-20T05:44:27.478Z,14.88
2022-10-20T05:46:57.763Z,14.90
2022-10-20T05:49:27.988Z,14.90
2022-10-20T05:51:59.074Z,14.93
2022-10-20T05:54:28.716Z,14.94
2022-10-20T05:56:58.814Z,14.94
2022-10-20T05:59:29.387Z,14.94
2022-10-20T06:02:00.262Z,14.95
2022-10-20T06:04:30.576Z,14.93
2022-10-20T06:07:01.097Z,14.92
2022-10-20T06:09:31.343Z,14.91
2022-10-20T06:12:00.922Z,14.88
2022-10-20T06:14:31.088Z,14.84
2022-10-20T06:17:01.471Z,14.84
2022-10-20T06:19:31.000Z,14.84
2022-10-20T06:22:04.011Z,14.83
2022-10-20T06:24:37.972Z,14.83
2022-10-20T06:27:08.220Z,14.85
2022-10-20T06:29:38.493Z,14.89
2022-10-20T06:32:08.772Z,14.92
2022-10-20T06:34:38.875Z,14.97
2022-10-20T06:37:11.039Z,15.01
2022-10-20T06:39:41.320Z,15.03
2022-10-20T06:42:12.341Z,15.06
2022-10-20T06:44:48.102Z,15.09
2022-10-20T06:47:19.193Z,15.11
2022-10-20T06:49:52.603Z,15.13
2022-10-20T06:52:23.091Z,15.13
2022-10-20T06:54:53.930Z,15.16
2022-10-20T06:57:24.541Z,15.17
2022-10-20T06:59:54.678Z,15.18
2022-10-20T07:02:24.759Z,15.17
2022-10-20T07:04:54.850Z,15.14
2022-10-20T07:07:25.034Z,15.11
2022-10-20T07:09:56.676Z,15.11
2022-10-20T07:12:26.936Z,15.10
2022-10-20T07:14:57.376Z,15.10
2022-10-20T07:17:27.504Z,15.08
2022-10-20T07:19:57.658Z,15.08
2022-10-20T07:22:27.762Z,15.10
2022-10-20T07:24:57.842Z,15.13
2022-10-20T07:27:28.073Z,15.14
2022-10-20T07:29:58.708Z,15.19
2022-10-20T07:32:28.737Z,15.24
2022-10-20T07:34:58.858Z,15.29
2022-10-20T07:37:29.126Z,15.32
2022-10-20T07:40:00.144Z,15.39
2022-10-20T07:42:32.902Z,15.43
2022-10-20T07:45:02.637Z,15.49
2022-10-20T07:47:38.111Z,15.53
2022-10-20T07:50:11.215Z,15.55
2022-10-20T07:52:41.896Z,15.55
2022-10-20T07:55:33.494Z,15.53
2022-10-20T07:58:02.855Z,15.52
2022-10-20T08:00:33.136Z,15.50
2022-10-20T08:03:03.519Z,15.48
2022-10-20T08:05:33.614Z,15.46
2022-10-20T08:08:03.710Z,15.44
2022-10-20T08:10:33.778Z,15.42
2022-10-20T08:13:03.838Z,15.40
2022-10-20T08:15:34.063Z,15.37
2022-10-20T08:18:04.960Z,15.34
2022-10-20T08:20:35.659Z,15.31
2022-10-20T08:23:06.277Z,15.29
2022-10-20T08:25:37.240Z,15.26
2022-10-20T08:28:08.492Z,15.22
2022-10-20T08:30:40.504Z,15.20
2022-10-20T08:33:11.256Z,15.18
2022-10-20T08:35:41.506Z,15.15
2022-10-20T08:38:11.605Z,15.13
2022-10-20T08:40:45.328Z,15.09
2022-10-20T08:43:22.720Z,15.10
2022-10-20T08:45:52.973Z,15.06
2022-10-20T08:48:29.563Z,15.05
2022-10-20T08:51:00.209Z,15.01
2022-10-20T08:53:38.181Z,14.98
2022-10-20T08:56:08.778Z,14.94
2022-10-20T08:58:43.206Z,14.91
2022-10-20T09:01:32.288Z,14.88
2022-10-20T09:04:14.531Z,14.85
2022-10-20T09:06:47.742Z,14.82
2022-10-20T09:09:24.773Z,14.79
2022-10-20T09:12:04.192Z,14.77
2022-10-20T09:14:38.691Z,14.75
2022-10-20T09:17:18.142Z,14.72
2022-10-20T09:19:54.501Z,14.66
2022-10-20T09:22:34.784Z,14.62
2022-10-20T09:25:07.181Z,14.56
2022-10-20T09:27:44.378Z,14.50
2022-10-20T09:30:27.367Z,14.45
2022-10-20T09:32:57.972Z,14.39
2022-10-20T09:35:31.220Z,14.34
2022-10-20T09:38:12.232Z,14.30
2022-10-20T09:41:12.242Z,14.26
2022-10-20T09:44:10.449Z,14.22
2022-10-20T09:46:41.693Z,14.17
2022-10-20T09:49:31.175Z,14.13
2022-10-20T09:52:04.484Z,14.10
2022-10-20T09:54:34.963Z,14.06
2022-10-20T09:57:17.181Z,14.02
2022-10-20T09:59:50.997Z,13.99
2022-10-20T10:02:21.529Z,13.97
2022-10-20T10:04:55.239Z,13.94
2022-10-20T10:07:30.254Z,13.91
2022-10-20T10:10:08.451Z,13.91
2022-10-20T10:12:40.151Z,13.90
2022-10-20T10:15:31.002Z,13.89
2022-10-20T10:18:02.499Z,13.88
2022-10-20T10:20:41.208Z,13.85
2022-10-20T10:23:20.204Z,13.83
2022-10-20T10:25:52.090Z,13.82
2022-10-20T10:28:39.746Z,13.79
2022-10-20T10:31:20.440Z,13.77
2022-10-20T10:34:23.045Z,13.76
2022-10-20T10:36:53.177Z,13.76
2022-10-20T10:39:23.768Z,13.73
2022-10-20T10:42:15.090Z,13.73
2022-10-20T10:44:57.124Z,13.71
2022-10-20T10:48:05.023Z,13.69
2022-10-20T10:50:41.432Z,13.65
2022-10-20T10:53:42.486Z,13.61
2022-10-20T10:56:35.497Z,13.60
2022-10-20T10:59:14.858Z,13.56
2022-10-20T11:01:48.892Z,13.54
2022-10-20T11:04:50.194Z,13.51
2022-10-20T11:07:41.897Z,13.50
2022-10-20T11:10:27.158Z,13.48
2022-10-20T11:13:26.037Z,13.41
2022-10-20T11:16:03.554Z,13.39
2022-10-20T11:18:58.191Z,13.38
2022-10-20T11:22:01.063Z,13.38
2022-10-20T11:24:50.778Z,13.37
2022-10-20T11:27:35.817Z,13.34
2022-10-20T11:30:24.566Z,13.34
2022-10-20T11:33:14.326Z,13.32
2022-10-20T11:36:06.357Z,13.31
2022-10-20T11:38:51.828Z,13.30
2022-10-20T11:41:47.425Z,13.27
2022-10-20T11:44:42.209Z,13.25
2022-10-20T11:47:20.789Z,13.22
2022-10-20T11:49:51.161Z,13.20
2022-10-20T11:52:48.423Z,13.18
2022-10-20T11:55:34.265Z,13.18
2022-10-20T11:58:29.711Z,13.15
2022-10-20T12:01:30.749Z,13.13
2022-10-20T12:04:22.209Z,13.11
2022-10-20T12:07:18.353Z,13.08
2022-10-20T12:09:54.378Z,13.07
2022-10-20T12:12:32.472Z,13.06
2022-10-20T12:15:05.155Z,13.06
2022-10-20T12:17:44.609Z,13.04
2022-10-20T12:20:23.911Z,13.06
2022-10-20T12:22:56.994Z,13.05
2022-10-20T12:25:33.282Z,13.06
2022-10-20T12:28:24.930Z,13.06
2022-10-20T12:31:03.365Z,13.05
2022-10-20T12:33:43.629Z,13.04
2022-10-20T12:36:19.665Z,13.02
2022-10-20T12:38:56.679Z,13.00
2022-10-20T12:41:36.361Z,12.97
2022-10-20T12:44:19.402Z,12.95
2022-10-20T12:47:21.441Z,12.96
2022-10-20T12:50:09.261Z,12.95
2022-10-20T12:52:42.358Z,12.96
2022-10-20T12:55:21.006Z,12.96
2022-10-20T12:57:51.565Z,12.97
2022-10-20T13:00:21.980Z,12.96
2022-10-20T13:02:52.798Z,12.94
2022-10-20T13:05:41.524Z,12.89
2022-10-20T13:08:25.353Z,12.83
2022-10-20T13:10:56.480Z,12.79
2022-10-20T13:16:08.053Z,12.78
2022-10-20T13:18:47.130Z,12.75
2022-10-20T13:21:30.899Z,12.72
2022-10-20T13:24:03.918Z,12.70
2022-10-20T13:26:47.089Z,12.68
2022-10-20T13:29:38.457Z,12.67
2022-10-20T13:32:54.036Z,12.64
2022-10-20T13:35:49.101Z,12.61
2022-10-20T13:38:30.676Z,12.59
2022-10-20T13:41:16.019Z,12.58
2022-10-20T13:44:29.144Z,12.52
2022-10-20T13:47:10.959Z,12.47
2022-10-20T13:49:52.936Z,12.43
2022-10-20T13:52:24.267Z,12.39
2022-10-20T13:54:55.506Z,12.36
2022-10-20T13:57:36.088Z,12.35
2022-10-20T14:00:26.398Z,12.35
2022-10-20T14:03:01.630Z,12.34
2022-10-20T14:05:39.533Z,12.31
2022-10-20T14:08:17.125Z,12.30
2022-10-20T14:10:54.983Z,12.31
2022-10-20T14:13:32.419Z,12.31
2022-10-20T14:16:07.112Z,12.29
2022-10-20T14:18:41.190Z,12.30
2022-10-20T14:21:21.225Z,12.30
2022-10-20T14:23:52.860Z,12.29
2022-10-20T14:26:25.758Z,12.28
2022-10-20T14:28:56.732Z,12.26
2022-10-20T14:31:27.669Z,12.28
2022-10-20T14:33:58.206Z,12.29
2022-10-20T14:36:31.854Z,12.30
2022-10-20T14:39:05.755Z,12.30
2022-10-20T14:41:38.360Z,12.28
2022-10-20T14:44:30.170Z,12.26
2022-10-20T14:47:08.774Z,12.24
2022-10-20T14:49:45.544Z,12.21
2022-10-20T14:52:21.998Z,12.20
2022-10-20T14:54:54.184Z,12.17
2022-10-20T14:57:28.254Z,12.17
2022-10-20T15:00:05.093Z,12.15
2022-10-20T15:02:40.162Z,12.16
2022-10-20T15:05:46.762Z,12.12
2022-10-20T15:08:28.391Z,12.09
2022-10-20T15:11:00.257Z,12.07
2022-10-20T15:13:37.225Z,12.08
2022-10-20T15:16:09.322Z,12.07
2022-10-20T15:18:40.175Z,12.10
2022-10-20T15:21:13.523Z,12.09
2022-10-20T15:23:43.992Z,12.08
2022-10-20T15:26:17.040Z,12.06
2022-10-20T15:28:49.017Z,12.05
2022-10-20T15:31:28.575Z,12.04
2022-10-20T15:34:00.574Z,12.04
2022-10-20T15:36:41.936Z,12.03
2022-10-20T15:39:13.539Z,12.01
2022-10-20T15:41:44.371Z,12.02
2022-10-20T15:44:24.569Z,12.00
2022-10-20T15:46:55.602Z,12.00
2022-10-20T15:49:25.902Z,11.96
2022-10-20T15:51:56.640Z,11.98
2022-10-20T15:54:27.170Z,11.99
2022-10-20T15:56:57.943Z,11.99
2022-10-20T15:59:28.873Z,11.98
2022-10-20T16:01:59.150Z,11.97
2022-10-20T16:04:30.007Z,11.97
2022-10-20T16:07:03.014Z,11.95
2022-10-20T16:09:33.785Z,11.92
2022-10-20T16:12:04.122Z,11.88
2022-10-20T16:14:36.158Z,11.86
2022-10-20T16:17:06.800Z,11.83
2022-10-20T16:19:36.897Z,11.79
2022-10-20T16:22:07.002Z,11.78
2022-10-20T16:24:37.666Z,11.73
2022-10-20T16:27:07.936Z,11.70
2022-10-20T16:29:38.510Z,11.66
2022-10-20T16:32:09.061Z,11.60
2022-10-20T16:34:39.955Z,11.55
2022-10-20T16:37:10.810Z,11.53
2022-10-20T16:39:41.252Z,11.51
2022-10-20T16:42:12.172Z,11.45
2022-10-20T16:44:42.948Z,11.41
2022-10-20T16:47:13.537Z,11.36
2022-10-20T16:49:43.671Z,11.35
2022-10-20T16:52:13.781Z,11.34
2022-10-20T16:54:43.981Z,11.32
2022-10-20T16:57:15.896Z,11.30
2022-10-20T16:59:51.375Z,11.29
2022-10-20T17:02:22.369Z,11.26
2022-10-20T17:04:53.514Z,11.23
2022-10-20T17:07:24.150Z,11.21
2022-10-20T17:09:54.354Z,11.18
2022-10-20T17:12:24.623Z,11.18
2022-10-20T17:14:55.024Z,11.15
2022-10-20T17:17:25.405Z,11.12
2022-10-20T17:19:55.582Z,11.10
2022-10-20T17:22:25.716Z,11.07
2022-10-20T17:24:55.088Z,11.05
2022-10-20T17:27:25.191Z,11.00
2022-10-20T17:29:55.299Z,10.97
2022-10-20T17:32:25.378Z,10.94
2022-10-20T17:34:55.745Z,10.91
2022-10-20T17:37:25.919Z,10.87
2022-10-20T17:39:56.203Z,10.84
2022-10-20T17:42:26.310Z,10.83
2022-10-20T17:44:56.487Z,10.80
2022-10-20T17:47:26.664Z,10.76
2022-10-20T17:49:56.855Z,10.73
2022-10-20T17:52:26.931Z,10.66
2022-10-20T17:54:57.532Z,10.61
2022-10-20T17:57:27.775Z,10.58
2022-10-20T17:59:59.352Z,10.56
2022-10-20T18:02:35.683Z,10.54
2022-10-20T18:05:07.196Z,10.58
2022-10-20T18:07:37.005Z,10.58
2022-10-20T18:10:07.712Z,10.58
2022-10-20T18:12:38.511Z,10.50
2022-10-20T18:15:09.865Z,10.45
2022-10-20T18:17:40.001Z,10.41
2022-10-20T18:20:12.625Z,10.36
2022-10-20T18:22:43.347Z,10.32
2022-10-20T18:25:13.677Z,10.29
2022-10-20T18:27:43.783Z,10.23
2022-10-20T18:30:13.982Z,10.21
2022-10-20T18:32:44.608Z,10.18
2022-10-20T18:35:14.795Z,10.16
2022-10-20T18:37:46.312Z,10.13
2022-10-20T18:40:17.486Z,10.11
2022-10-20T18:42:47.729Z,10.10
2022-10-20T18:45:20.327Z,10.10
2022-10-20T18:47:52.995Z,10.08
2022-10-20T18:50:24.072Z,10.07
2022-10-20T18:52:54.474Z,10.02
2022-10-20T18:55:23.889Z,10.00
2022-10-20T18:57:53.903Z,9.98
2022-10-20T19:00:24.411Z,9.97
2022-10-20T19:02:56.897Z,9.97
2022-10-20T19:05:29.795Z,9.95
2022-10-20T19:07:59.826Z,9.95
2022-10-20T19:10:29.935Z,9.97
2022-10-20T19:13:00.600Z,9.97
2022-10-20T19:15:30.819Z,9.96
2022-10-20T19:18:01.754Z,9.92
2022-10-20T19:20:32.961Z,9.89
2022-10-20T19:23:03.500Z,9.86
2022-10-20T19:25:34.833Z,9.84
2022-10-20T19:28:05.776Z,9.82
2022-10-20T19:30:37.606Z,9.79
2022-10-20T19:33:08.213Z,9.77
2022-10-20T19:35:38.601Z,9.76
2022-10-20T19:38:08.735Z,9.76
2022-10-20T19:40:38.919Z,9.75
2022-10-20T19:43:08.622Z,9.74
2022-10-20T19:45:38.842Z,9.74
2022-10-20T19:48:09.052Z,9.74
2022-10-20T19:50:39.495Z,9.71
2022-10-20T19:53:09.579Z,9.70
2022-10-20T19:55:39.803Z,9.70
2022-10-20T20:00:47.527Z,9.71
2022-10-20T20:03:17.674Z,9.71
2022-10-20T20:05:48.413Z,9.69
2022-10-20T20:08:19.167Z,9.66
2022-10-20T20:10:54.368Z,9.63
2022-10-20T20:13:25.400Z,9.60
2022-10-20T20:15:55.573Z,9.60
2022-10-20T20:18:26.257Z,9.58
2022-10-20T20:20:56.424Z,9.59
2022-10-20T20:23:40.822Z,9.57
2022-10-20T20:26:16.724Z,9.57
2022-10-20T20:28:46.900Z,9.52
2022-10-20T20:31:17.129Z,9.48
2022-10-20T20:33:47.426Z,9.46
2022-10-20T20:36:17.742Z,9.42
2022-10-20T20:38:48.155Z,9.41
2022-10-20T20:41:20.505Z,9.41
2022-10-20T20:43:50.530Z,9.37
2022-10-20T20:46:23.866Z,9.35
2022-10-20T20:48:54.124Z,9.33
2022-10-20T20:51:24.531Z,9.29
2022-10-20T20:53:54.661Z,9.29
2022-10-20T20:56:27.031Z,9.27
2022-10-20T20:58:57.247Z,9.25
2022-10-20T21:01:29.350Z,9.22
2022-10-20T21:04:02.126Z,9.21
2022-10-20T21:06:49.383Z,9.19
2022-10-20T21:09:23.731Z,9.14
2022-10-20T21:11:53.912Z,9.13
2022-10-20T21:14:24.120Z,9.08
2022-10-20T21:16:54.224Z,9.05
2022-10-20T21:19:24.667Z,9.03
2022-10-20T21:22:02.679Z,9.01
2022-10-20T21:24:32.796Z,9.03
2022-10-20T21:27:02.819Z,9.03
2022-10-20T21:29:32.975Z,9.01
2022-10-20T21:32:03.078Z,9.01
2022-10-20T21:34:33.148Z,8.99
2022-10-20T21:37:03.280Z,8.98
2022-10-20T21:39:33.321Z,8.96
2022-10-20T21:42:03.668Z,8.97
2022-10-20T21:44:33.924Z,8.94
2022-10-20T21:47:04.107Z,8.94
2022-10-20T21:49:35.164Z,8.93
2022-10-20T21:52:05.336Z,8.94
2022-10-20T21:54:35.397Z,8.93
2022-10-20T21:57:05.603Z,8.89
2022-10-20T21:59:35.740Z,8.87
2022-10-20T22:02:06.655Z,8.84
2022-10-20T22:04:36.715Z,8.80
2022-10-20T22:07:06.885Z,8.80
2022-10-20T22:09:37.076Z,8.78
2022-10-20T22:12:07.571Z,8.75
2022-10-20T22:14:37.772Z,8.75
2022-10-20T22:17:07.931Z,8.71
2022-10-20T22:19:38.093Z,8.69
2022-10-20T22:22:08.385Z,8.68
2022-10-20T22:24:38.551Z,8.69
2022-10-20T22:27:15.591Z,8.67
2022-10-20T22:29:57.615Z,8.63
2022-10-20T22:32:28.255Z,8.60
2022-10-20T22:34:58.362Z,8.56
2022-10-20T22:37:28.676Z,8.51
2022-10-20T22:39:58.777Z,8.47
2022-10-20T22:42:28.887Z,8.46
2022-10-20T22:44:59.023Z,8.44
2022-10-20T22:47:29.561Z,8.43
2022-10-20T22:49:59.598Z,8.43
2022-10-20T22:52:30.001Z,8.43
2022-10-20T22:55:00.784Z,8.42
2022-10-20T22:57:31.019Z,8.41
2022-10-20T23:00:01.721Z,8.42
2022-10-20T23:02:32.025Z,8.41
2022-10-20T23:05:02.864Z,8.43
2022-10-20T23:07:33.140Z,8.46
2022-10-20T23:10:05.349Z,8.47
2022-10-20T23:12:36.777Z,8.49
2022-10-20T23:15:08.616Z,8.50
2022-10-20T23:17:39.350Z,8.50
2022-10-20T23:20:10.716Z,8.51
2022-10-20T23:22:41.007Z,8.50
2022-10-20T23:25:11.771Z,8.54
2022-10-20T23:27:42.086Z,8.57
2022-10-20T23:30:13.025Z,8.62
2022-10-20T23:32:43.425Z,8.66
2022-10-20T23:35:13.530Z,8.71
2022-10-20T23:37:43.724Z,8.78
2022-10-20T23:40:14.247Z,8.86
2022-10-20T23:42:44.878Z,8.93
2022-10-20T23:45:14.955Z,9.00
2022-10-20T23:47:45.729Z,9.07
2022-10-20T23:50:17.883Z,9.14
2022-10-20T23:52:49.279Z,9.20
2022-10-20T23:55:19.733Z,9.29
2022-10-20T23:57:52.316Z,9.37
